createdAt,value
2018-03-11T00:00:54.168Z,81.99
2018-03-11T00:06:58.670Z,81.97
2018-03-11T00:13:04.154Z,81.78
2018-03-11T00:19:08.790Z,81.68
2018-03-11T00:25:13.289Z,81.63
2018-03-11T00:31:17.919Z,81.87
2018-03-11T00:37:22.477Z,81.27
2018-03-11T00:43:27.869Z,81.15
2018-03-11T00:49:32.367Z,81.08
2018-03-11T00:55:37.650Z,81.68
2018-03-11T01:01:42.134Z,81.21
2018-03-11T01:07:47.661Z,81.54
2018-03-11T01:13:52.309Z,81.83
2018-03-11T01:19:57.601Z,82.02
2018-03-11T01:26:02.096Z,81.92
2018-03-11T01:32:07.391Z,82.30
2018-03-11T01:38:12.906Z,82.08
2018-03-11T01:44:17.482Z,81.45
2018-03-11T01:50:22.229Z,81.96
2018-03-11T01:56:27.505Z,81.82
2018-03-11T02:02:31.997Z,81.49
2018-03-11T02:08:36.931Z,81.60
2018-03-11T02:14:41.439Z,82.47
2018-03-11T02:20:46.567Z,82.77
2018-03-11T02:26:52.575Z,82.71
2018-03-11T02:32:57.324Z,82.25
2018-03-11T02:39:01.847Z,82.47
2018-03-11T02:45:06.422Z,82.15
2018-03-11T02:51:11.039Z,81.51
2018-03-11T02:57:15.606Z,81.91
2018-03-11T03:03:20.886Z,81.69
2018-03-11T03:09:25.591Z,81.88
2018-03-11T03:15:30.168Z,81.51
2018-03-11T03:21:34.671Z,82.00
2018-03-11T03:27:39.231Z,81.91
2018-03-11T03:33:43.802Z,82.58
2018-03-11T03:39:48.661Z,82.49
2018-03-11T03:45:53.399Z,82.21
2018-03-11T03:51:57.884Z,82.06
2018-03-11T03:58:02.384Z,82.49
2018-03-11T04:04:06.960Z,82.82
2018-03-11T04:10:11.475Z,82.19
2018-03-11T04:16:17.044Z,82.39
2018-03-11T04:22:21.964Z,82.18
2018-03-11T04:28:26.475Z,82.09
2018-03-11T04:34:31.197Z,82.34
2018-03-11T04:40:36.513Z,82.48
2018-03-11T04:46:41.072Z,82.58
2018-03-11T04:52:45.764Z,82.62
2018-03-11T04:58:51.198Z,82.84
2018-03-11T05:04:55.739Z,83.29
2018-03-11T05:11:00.326Z,83.20
2018-03-11T05:17:04.949Z,83.44
2018-03-11T05:23:09.516Z,83.81
2018-03-11T05:29:14.119Z,83.99
2018-03-11T05:35:19.123Z,84.24
2018-03-11T05:41:23.960Z,84.22
2018-03-11T05:47:28.715Z,84.19
2018-03-11T05:53:33.210Z,84.15
2018-03-11T05:59:38.664Z,84.11
2018-03-11T06:05:43.214Z,84.12
2018-03-11T06:11:47.772Z,83.81
2018-03-11T06:17:52.640Z,84.02
2018-03-11T06:23:57.197Z,84.37
2018-03-11T06:30:01.698Z,83.60
2018-03-11T06:36:06.190Z,83.43
2018-03-11T06:42:10.662Z,83.45
2018-03-11T06:48:16.187Z,83.06
2018-03-11T06:54:20.771Z,83.41
2018-03-11T07:00:25.320Z,83.33
2018-03-11T07:06:29.858Z,82.84
2018-03-11T07:12:34.365Z,82.35
2018-03-11T07:18:38.831Z,81.15
2018-03-11T07:24:44.128Z,79.91
2018-03-11T07:30:48.723Z,79.99
2018-03-11T07:36:53.269Z,79.14
2018-03-11T07:42:57.770Z,79.17
2018-03-11T07:49:02.254Z,78.24
2018-03-11T07:55:06.745Z,77.09
2018-03-11T08:01:11.315Z,74.37
2018-03-11T08:07:15.991Z,69.99
2018-03-11T08:13:22.306Z,69.18
2018-03-11T08:19:26.836Z,63.18
2018-03-11T08:25:31.415Z,60.64
2018-03-11T08:31:35.955Z,59.93
2018-03-11T08:37:41.337Z,59.51
2018-03-11T08:43:47.154Z,59.48
2018-03-11T08:49:51.747Z,59.30
2018-03-11T08:55:56.999Z,58.76
2018-03-11T09:02:01.503Z,53.75
2018-03-11T09:08:06.001Z,54.65
2018-03-11T09:14:10.491Z,56.95
2018-03-11T09:20:15.764Z,56.80
2018-03-11T09:26:21.631Z,50.83
2018-03-11T09:32:26.944Z,45.42
2018-03-11T09:38:31.419Z,46.44
2018-03-11T09:44:35.988Z,47.05
2018-03-11T09:50:40.482Z,52.88
2018-03-11T09:56:44.985Z,56.92
2018-03-11T10:02:50.227Z,58.86
2018-03-11T10:08:54.783Z,61.00
2018-03-11T10:15:00.051Z,63.13
2018-03-11T10:21:04.618Z,60.46
2018-03-11T10:27:09.201Z,57.02
2018-03-11T10:33:15.023Z,52.02
2018-03-11T10:39:19.666Z,53.20
2018-03-11T10:45:24.357Z,54.77
2018-03-11T10:51:28.842Z,49.63
2018-03-11T10:57:34.187Z,43.29
2018-03-11T11:03:38.854Z,40.29
2018-03-11T11:09:43.376Z,36.90
2018-03-11T11:15:47.971Z,37.60
2018-03-11T11:21:52.719Z,35.55
2018-03-11T11:27:57.246Z,35.31
2018-03-11T11:34:01.885Z,37.07
2018-03-11T11:40:06.545Z,40.38
2018-03-11T11:46:11.928Z,44.38
2018-03-11T11:52:16.492Z,48.52
2018-03-11T11:58:22.055Z,51.44
2018-03-11T12:04:26.569Z,54.43
2018-03-11T12:10:31.205Z,55.82
2018-03-11T12:16:35.695Z,56.11
2018-03-11T12:22:40.238Z,57.03
2018-03-11T12:28:44.684Z,55.42
2018-03-11T12:34:49.367Z,55.11
2018-03-11T12:40:54.647Z,56.62
2018-03-11T12:46:59.151Z,57.36
2018-03-11T12:53:03.657Z,57.28
2018-03-11T12:59:08.130Z,57.09
2018-03-11T13:05:13.411Z,57.49
2018-03-11T13:11:19.472Z,58.38
2018-03-11T13:17:24.273Z,58.82
2018-03-11T13:23:28.806Z,57.56
2018-03-11T13:29:33.331Z,58.47
2018-03-11T13:35:37.971Z,57.81
2018-03-11T13:41:42.751Z,58.45
2018-03-11T13:47:47.698Z,58.68
2018-03-11T13:53:53.868Z,58.23
2018-03-11T13:59:58.471Z,57.76
2018-03-11T14:06:03.099Z,55.67
2018-03-11T14:12:08.431Z,53.46
2018-03-11T14:18:12.893Z,53.13
2018-03-11T14:24:17.366Z,50.22
2018-03-11T14:30:21.958Z,49.27
2018-03-11T14:36:27.250Z,49.76
2018-03-11T14:42:31.731Z,51.65
2018-03-11T14:48:36.210Z,51.34
2018-03-11T14:54:40.875Z,50.63
2018-03-11T15:00:45.422Z,52.35
2018-03-11T15:06:50.199Z,53.43
2018-03-11T15:12:54.828Z,54.79
2018-03-11T15:18:59.301Z,54.26
2018-03-11T15:25:04.538Z,56.17
2018-03-11T15:31:09.118Z,56.04
2018-03-11T15:37:13.616Z,56.81
2018-03-11T15:43:19.750Z,56.46
2018-03-11T15:49:24.530Z,55.95
2018-03-11T15:55:29.019Z,57.03
2018-03-11T16:01:34.416Z,58.20
2018-03-11T16:07:39.805Z,58.74
2018-03-11T16:13:45.104Z,59.02
2018-03-11T16:19:50.594Z,58.73
2018-03-11T16:25:55.141Z,57.73
2018-03-11T16:31:59.618Z,57.38
2018-03-11T16:38:04.110Z,59.59
2018-03-11T16:44:08.569Z,60.37
2018-03-11T16:50:13.038Z,60.35
2018-03-11T16:56:18.010Z,60.80
2018-03-11T17:02:22.943Z,61.66
2018-03-11T17:08:27.419Z,61.53
2018-03-11T17:14:32.698Z,62.26
2018-03-11T17:20:37.404Z,62.66
2018-03-11T17:26:42.774Z,62.91
2018-03-11T17:32:47.350Z,63.50
2018-03-11T17:38:51.887Z,65.59
2018-03-11T17:44:57.186Z,66.54
2018-03-11T17:51:01.583Z,68.30
2018-03-11T17:57:06.239Z,68.09
2018-03-11T18:03:10.767Z,67.02
2018-03-11T18:09:15.388Z,67.17
2018-03-11T18:15:20.912Z,66.56
2018-03-11T18:21:26.182Z,66.69
2018-03-11T18:27:30.678Z,66.90
2018-03-11T18:33:35.114Z,67.72
2018-03-11T18:39:39.574Z,67.23
2018-03-11T18:45:44.042Z,66.75
2018-03-11T18:51:50.124Z,66.78
2018-03-11T18:57:55.376Z,67.34
2018-03-11T19:03:59.888Z,67.50
2018-03-11T19:10:04.444Z,67.68
2018-03-11T19:16:08.962Z,67.76
2018-03-11T19:22:13.456Z,66.93
2018-03-11T19:28:18.899Z,66.60
2018-03-11T19:34:23.595Z,66.21
2018-03-11T19:40:28.069Z,66.31
2018-03-11T19:46:33.330Z,65.99
2018-03-11T19:52:37.810Z,66.46
2018-03-11T19:58:42.294Z,66.47
2018-03-11T20:04:47.218Z,66.67
2018-03-11T20:10:52.169Z,67.16
2018-03-11T20:16:56.645Z,67.40
2018-03-11T20:23:01.109Z,67.41
2018-03-11T20:29:05.680Z,67.06
2018-03-11T20:35:10.198Z,68.28
2018-03-11T20:41:15.809Z,68.95
2018-03-11T20:47:21.725Z,68.08
2018-03-11T20:53:27.005Z,68.06
2018-03-11T20:59:32.245Z,67.35
2018-03-11T21:05:36.761Z,67.75
2018-03-11T21:11:41.238Z,68.51
2018-03-11T21:17:47.707Z,69.23
2018-03-11T21:23:52.347Z,70.82
2018-03-11T21:29:56.858Z,71.46
2018-03-11T21:36:02.170Z,71.17
2018-03-11T21:42:06.647Z,71.61
2018-03-11T21:48:11.139Z,71.69
2018-03-11T21:54:15.846Z,72.74
2018-03-11T22:00:21.064Z,72.21
2018-03-11T22:06:25.667Z,73.44
2018-03-11T22:12:30.953Z,73.34
2018-03-11T22:18:35.532Z,72.90
2018-03-11T22:24:39.997Z,74.13
2018-03-11T22:30:44.487Z,73.65
2018-03-11T22:36:49.873Z,74.58
2018-03-11T22:42:54.429Z,74.40
2018-03-11T22:48:58.888Z,73.94
2018-03-11T22:55:04.187Z,73.75
2018-03-11T23:01:08.727Z,75.04
2018-03-11T23:07:13.207Z,76.45
2018-03-11T23:13:18.993Z,76.74
2018-03-11T23:19:23.607Z,76.74
2018-03-11T23:25:29.541Z,77.47
2018-03-11T23:31:33.954Z,77.56
2018-03-11T23:37:38.357Z,78.08
2018-03-11T23:43:43.726Z,77.34
2018-03-11T23:49:48.439Z,75.65
2018-03-11T23:55:52.909Z,75.41
